createdAt,value
2019-05-23T00:00:54.802Z,77.32
2019-05-23T00:03:27.450Z,77.56
2019-05-23T00:06:01.767Z,77.88
2019-05-23T00:08:32.410Z,77.87
2019-05-23T00:11:22.021Z,77.87
2019-05-23T00:14:01.119Z,77.44
2019-05-23T00:16:31.861Z,77.32
2019-05-23T00:19:02.286Z,77.33
2019-05-23T00:21:33.338Z,77.41
2019-05-23T00:24:02.915Z,77.50
2019-05-23T00:26:32.643Z,77.73
2019-05-23T00:29:10.421Z,77.73
2019-05-23T00:31:45.726Z,77.62
2019-05-23T00:34:15.468Z,77.71
2019-05-23T00:36:46.291Z,77.81
2019-05-23T00:39:16.948Z,77.92
2019-05-23T00:41:48.911Z,77.73
2019-05-23T00:44:19.295Z,78.04
2019-05-23T00:46:50.138Z,78.04
2019-05-23T00:49:22.003Z,78.32
2019-05-23T00:51:51.557Z,78.40
2019-05-23T00:54:21.653Z,78.25
2019-05-23T00:56:51.799Z,78.20
2019-05-23T00:59:27.218Z,78.36
2019-05-23T01:01:53.835Z,78.46
2019-05-23T01:04:24.241Z,78.53
2019-05-23T01:06:54.139Z,78.58
2019-05-23T01:09:25.359Z,78.63
2019-05-23T01:11:55.604Z,78.46
2019-05-23T01:14:26.244Z,78.41
2019-05-23T01:16:55.687Z,78.00
2019-05-23T01:19:25.481Z,78.30
2019-05-23T01:22:03.034Z,78.46
2019-05-23T01:24:36.315Z,78.15
2019-05-23T01:27:07.432Z,78.21
2019-05-23T01:29:49.672Z,78.23
2019-05-23T01:32:43.965Z,78.03
2019-05-23T01:35:17.371Z,78.28
2019-05-23T01:37:48.757Z,78.51
2019-05-23T01:40:18.630Z,78.62
2019-05-23T01:42:48.130Z,78.47
2019-05-23T01:45:19.431Z,78.44
2019-05-23T01:47:50.503Z,78.25
2019-05-23T01:50:23.922Z,78.36
2019-05-23T01:52:54.256Z,78.34
2019-05-23T01:55:24.607Z,78.20
2019-05-23T01:57:54.795Z,78.49
2019-05-23T02:00:27.961Z,78.44
2019-05-23T02:02:57.735Z,78.58
2019-05-23T02:05:28.224Z,78.59
2019-05-23T02:07:57.686Z,78.51
2019-05-23T02:10:27.880Z,78.54
2019-05-23T02:12:57.975Z,78.34
2019-05-23T02:15:28.462Z,78.72
2019-05-23T02:17:58.302Z,78.84
2019-05-23T02:20:29.353Z,78.74
2019-05-23T02:23:00.065Z,78.72
2019-05-23T02:25:30.462Z,78.56
2019-05-23T02:28:00.247Z,78.36
2019-05-23T02:30:34.878Z,78.56
2019-05-23T02:33:02.736Z,78.31
2019-05-23T02:35:32.537Z,78.70
2019-05-23T02:38:20.995Z,78.69
2019-05-23T02:41:08.033Z,78.85
2019-05-23T02:43:39.385Z,78.85
2019-05-23T02:46:19.116Z,78.89
2019-05-23T02:48:51.189Z,79.01
2019-05-23T02:51:26.140Z,79.24
2019-05-23T02:53:57.323Z,79.30
2019-05-23T02:56:28.413Z,79.47
2019-05-23T02:59:10.003Z,79.71
2019-05-23T03:02:15.256Z,79.63
2019-05-23T03:04:47.648Z,79.86
2019-05-23T03:07:21.839Z,80.06
2019-05-23T03:09:51.988Z,79.90
2019-05-23T03:12:25.186Z,80.26
2019-05-23T03:14:53.587Z,80.15
2019-05-23T03:17:25.264Z,80.28
2019-05-23T03:19:58.018Z,80.21
2019-05-23T03:22:36.710Z,80.08
2019-05-23T03:25:10.592Z,80.22
2019-05-23T03:27:44.927Z,80.18
2019-05-23T03:30:21.291Z,80.26
2019-05-23T03:32:54.642Z,80.31
2019-05-23T03:35:38.879Z,80.33
2019-05-23T03:38:10.677Z,80.39
2019-05-23T03:40:41.369Z,80.24
2019-05-23T03:43:11.786Z,80.46
2019-05-23T03:45:47.677Z,80.41
2019-05-23T03:48:19.022Z,80.25
2019-05-23T03:50:48.887Z,80.09
2019-05-23T03:53:20.120Z,80.06
2019-05-23T03:55:50.117Z,80.00
2019-05-23T03:58:21.339Z,79.90
2019-05-23T04:00:56.963Z,79.66
2019-05-23T04:03:26.737Z,79.40
2019-05-23T04:05:59.865Z,79.38
2019-05-23T04:08:30.385Z,79.20
2019-05-23T04:11:00.540Z,78.92
2019-05-23T04:13:30.490Z,79.18
2019-05-23T04:16:00.598Z,79.13
2019-05-23T04:18:30.514Z,78.74
2019-05-23T04:21:00.032Z,78.71
2019-05-23T04:23:30.662Z,78.57
2019-05-23T04:26:00.264Z,78.26
2019-05-23T04:28:29.859Z,78.06
2019-05-23T04:30:59.572Z,77.77
2019-05-23T04:33:29.219Z,77.40
2019-05-23T04:35:59.049Z,77.26
2019-05-23T04:38:28.778Z,76.59
2019-05-23T04:40:58.176Z,76.36
2019-05-23T04:43:27.624Z,76.30
2019-05-23T04:45:57.675Z,75.93
2019-05-23T04:48:27.244Z,75.82
2019-05-23T04:50:59.955Z,75.53
2019-05-23T04:53:28.972Z,75.28
2019-05-23T04:55:58.892Z,74.65
2019-05-23T04:58:28.315Z,74.62
2019-05-23T05:00:57.980Z,74.47
2019-05-23T05:03:27.847Z,74.42
2019-05-23T05:05:57.351Z,74.20
2019-05-23T05:08:26.836Z,74.26
2019-05-23T05:10:56.494Z,74.26
2019-05-23T05:13:25.944Z,73.85
2019-05-23T05:15:55.890Z,73.51
2019-05-23T05:18:25.508Z,73.51
2019-05-23T05:20:54.942Z,73.50
2019-05-23T05:23:24.909Z,73.70
2019-05-23T05:25:54.302Z,73.93
2019-05-23T05:28:23.761Z,73.39
2019-05-23T05:30:53.972Z,73.58
2019-05-23T05:33:23.410Z,73.80
2019-05-23T05:35:52.962Z,73.90
2019-05-23T05:38:22.934Z,73.83
2019-05-23T05:40:52.699Z,73.69
2019-05-23T05:43:22.298Z,73.28
2019-05-23T05:45:51.960Z,73.19
2019-05-23T05:48:21.410Z,72.25
2019-05-23T05:50:51.074Z,71.81
2019-05-23T05:53:20.661Z,71.20
2019-05-23T05:55:50.085Z,70.65
2019-05-23T05:58:19.602Z,69.88
2019-05-23T06:01:08.321Z,69.93
2019-05-23T06:03:39.188Z,69.32
2019-05-23T06:06:29.043Z,68.62
2019-05-23T06:09:01.001Z,68.18
2019-05-23T06:11:31.366Z,67.24
2019-05-23T06:14:01.433Z,66.76
2019-05-23T06:16:31.856Z,65.76
2019-05-23T06:19:01.401Z,65.29
2019-05-23T06:21:31.338Z,64.97
2019-05-23T06:24:01.100Z,63.86
2019-05-23T06:26:31.218Z,63.61
2019-05-23T06:29:00.817Z,63.63
2019-05-23T06:31:31.900Z,62.75
2019-05-23T06:34:01.429Z,54.70
2019-05-23T06:36:31.594Z,48.14
2019-05-23T06:39:01.061Z,43.60
2019-05-23T06:41:31.208Z,38.11
2019-05-23T06:44:00.716Z,37.98
2019-05-23T06:46:30.461Z,34.85
2019-05-23T06:49:00.230Z,35.28
2019-05-23T06:51:31.272Z,32.09
2019-05-23T06:54:02.152Z,30.71
2019-05-23T06:56:32.230Z,30.06
2019-05-23T06:59:01.970Z,29.54
2019-05-23T07:01:34.068Z,26.74
2019-05-23T07:04:03.655Z,26.92
2019-05-23T07:06:33.122Z,27.75
2019-05-23T07:09:02.955Z,25.22
2019-05-23T07:11:32.371Z,23.88
2019-05-23T07:14:01.981Z,23.77
2019-05-23T07:16:33.030Z,22.37
2019-05-23T07:19:02.692Z,23.02
2019-05-23T07:21:32.389Z,22.12
2019-05-23T07:24:01.850Z,22.66
2019-05-23T07:26:31.606Z,21.62
2019-05-23T07:29:01.669Z,20.76
2019-05-23T07:31:31.546Z,20.13
2019-05-23T07:34:02.648Z,19.88
2019-05-23T07:36:32.795Z,19.30
2019-05-23T07:39:02.265Z,20.03
2019-05-23T07:41:32.020Z,20.29
2019-05-23T07:44:01.600Z,19.55
2019-05-23T07:46:32.191Z,19.76
2019-05-23T07:49:02.284Z,19.76
2019-05-23T07:51:31.802Z,18.84
2019-05-23T07:54:19.935Z,18.38
2019-05-23T07:56:49.326Z,18.88
2019-05-23T07:59:18.929Z,19.74
2019-05-23T08:01:53.639Z,18.54
2019-05-23T08:04:23.825Z,18.88
2019-05-23T08:06:54.148Z,19.63
2019-05-23T08:09:24.383Z,19.55
2019-05-23T08:11:54.042Z,19.75
2019-05-23T08:14:23.659Z,20.46
2019-05-23T08:16:54.036Z,20.29
2019-05-23T08:19:23.863Z,20.30
2019-05-23T08:21:53.756Z,19.96
2019-05-23T08:24:23.233Z,20.34
2019-05-23T08:26:53.722Z,19.82
2019-05-23T08:29:26.381Z,20.02
2019-05-23T08:31:55.455Z,21.20
2019-05-23T08:34:40.594Z,21.00
2019-05-23T08:36:57.369Z,20.27
2019-05-23T08:39:27.861Z,20.20
2019-05-23T08:41:57.600Z,21.60
2019-05-23T08:44:27.390Z,20.78
2019-05-23T08:47:00.312Z,21.26
2019-05-23T08:49:29.950Z,21.04
2019-05-23T08:51:59.718Z,20.79
2019-05-23T08:54:30.121Z,21.16
2019-05-23T08:56:59.589Z,20.45
2019-05-23T08:59:30.027Z,20.70
2019-05-23T09:02:00.027Z,20.27
2019-05-23T09:04:33.297Z,19.74
2019-05-23T09:07:04.768Z,20.37
2019-05-23T09:09:34.836Z,19.81
2019-05-23T09:12:05.061Z,20.48
2019-05-23T09:14:35.630Z,20.66
2019-05-23T09:17:06.119Z,21.30
2019-05-23T09:19:35.630Z,19.72
2019-05-23T09:22:05.212Z,20.47
2019-05-23T09:24:34.914Z,19.93
2019-05-23T09:27:04.752Z,19.81
2019-05-23T09:29:34.258Z,19.17
2019-05-23T09:32:04.416Z,19.94
2019-05-23T09:34:36.833Z,20.89
2019-05-23T09:37:08.262Z,19.30
2019-05-23T09:39:38.172Z,20.68
2019-05-23T09:42:11.750Z,21.24
2019-05-23T09:44:38.946Z,21.47
2019-05-23T09:47:08.638Z,21.88
2019-05-23T09:49:38.142Z,22.05
2019-05-23T09:52:08.326Z,23.11
2019-05-23T09:54:38.245Z,22.83
2019-05-23T09:57:08.951Z,23.34
2019-05-23T09:59:39.910Z,24.43
2019-05-23T10:02:09.863Z,25.01
2019-05-23T10:04:39.326Z,25.08
2019-05-23T10:07:08.788Z,25.86
2019-05-23T10:09:38.280Z,25.83
2019-05-23T10:12:08.785Z,25.75
2019-05-23T10:14:39.510Z,26.40
2019-05-23T10:17:09.283Z,25.70
2019-05-23T10:19:39.769Z,25.52
2019-05-23T10:22:09.242Z,25.89
2019-05-23T10:24:39.170Z,26.52
2019-05-23T10:27:10.343Z,26.08
2019-05-23T10:29:39.883Z,26.33
2019-05-23T10:32:11.086Z,26.70
2019-05-23T10:34:40.531Z,26.42
2019-05-23T10:37:12.393Z,26.49
2019-05-23T10:39:46.897Z,26.54
2019-05-23T10:42:16.811Z,27.36
2019-05-23T10:44:46.350Z,27.08
2019-05-23T10:47:16.078Z,27.21
2019-05-23T10:49:45.874Z,27.30
2019-05-23T10:52:15.408Z,26.84
2019-05-23T10:54:45.143Z,26.69
2019-05-23T10:57:14.800Z,26.49
2019-05-23T10:59:44.306Z,27.15
2019-05-23T11:02:14.729Z,26.42
2019-05-23T11:04:44.238Z,27.93
2019-05-23T11:07:14.467Z,28.06
2019-05-23T11:09:45.035Z,27.76
2019-05-23T11:12:14.669Z,27.77
2019-05-23T11:14:46.125Z,28.16
2019-05-23T11:17:15.879Z,27.89
2019-05-23T11:19:45.332Z,28.01
2019-05-23T11:22:14.941Z,28.03
2019-05-23T11:24:44.523Z,28.86
2019-05-23T11:27:14.071Z,28.76
2019-05-23T11:29:43.867Z,29.13
2019-05-23T11:32:13.853Z,28.94
2019-05-23T11:34:43.295Z,28.88
2019-05-23T11:37:12.712Z,28.70
2019-05-23T11:39:49.708Z,28.19
2019-05-23T11:42:13.811Z,29.18
2019-05-23T11:44:43.335Z,29.39
2019-05-23T11:47:13.415Z,30.08
2019-05-23T11:49:44.288Z,29.78
2019-05-23T11:52:14.627Z,30.21
2019-05-23T11:54:45.168Z,29.87
2019-05-23T11:57:15.642Z,30.38
2019-05-23T11:59:45.163Z,29.83
2019-05-23T12:02:32.346Z,30.49
2019-05-23T12:05:04.462Z,30.25
2019-05-23T12:07:34.740Z,29.86
2019-05-23T12:10:04.797Z,30.42
2019-05-23T12:12:34.194Z,30.73
2019-05-23T12:15:05.266Z,30.37
2019-05-23T12:17:35.251Z,31.14
2019-05-23T12:20:05.985Z,30.65
2019-05-23T12:22:37.010Z,30.65
2019-05-23T12:25:21.176Z,30.76
2019-05-23T12:27:39.589Z,30.48
2019-05-23T12:30:13.006Z,30.08
2019-05-23T12:32:42.526Z,29.81
2019-05-23T12:35:12.615Z,30.27
2019-05-23T12:37:42.109Z,30.07
2019-05-23T12:40:12.976Z,30.55
2019-05-23T12:42:42.393Z,30.07
2019-05-23T12:47:54.923Z,30.07
2019-05-23T12:50:27.685Z,29.15
2019-05-23T12:52:57.334Z,30.37
2019-05-23T12:55:27.345Z,29.29
2019-05-23T12:57:56.819Z,30.10
2019-05-23T13:00:45.359Z,29.92
2019-05-23T13:03:15.765Z,30.03
2019-05-23T13:05:45.372Z,30.05
2019-05-23T13:08:15.292Z,30.42
2019-05-23T13:10:44.852Z,30.57
2019-05-23T13:13:14.627Z,30.24
2019-05-23T13:15:44.358Z,29.55
2019-05-23T13:18:14.253Z,29.88
2019-05-23T13:20:44.080Z,29.44
2019-05-23T13:23:20.827Z,30.38
2019-05-23T13:25:45.538Z,29.45
2019-05-23T13:28:15.152Z,29.80
2019-05-23T13:30:44.683Z,30.00
2019-05-23T13:33:14.423Z,29.93
2019-05-23T13:35:45.815Z,30.26
2019-05-23T13:38:15.933Z,29.80
2019-05-23T13:40:45.502Z,30.12
2019-05-23T13:43:14.970Z,30.03
2019-05-23T13:45:44.959Z,30.15
2019-05-23T13:48:16.396Z,30.15
2019-05-23T13:50:46.156Z,29.95
2019-05-23T13:53:18.889Z,30.41
2019-05-23T13:55:48.456Z,29.28
2019-05-23T13:58:17.977Z,28.59
2019-05-23T14:00:48.089Z,29.84
2019-05-23T14:03:18.221Z,29.36
2019-05-23T14:05:47.846Z,28.88
2019-05-23T14:08:19.338Z,29.66
2019-05-23T14:10:48.712Z,29.55
2019-05-23T14:13:18.217Z,29.63
2019-05-23T14:15:49.127Z,29.38
2019-05-23T14:18:20.179Z,30.01
2019-05-23T14:20:50.117Z,30.45
2019-05-23T14:23:24.992Z,30.35
2019-05-23T14:25:55.007Z,30.00
2019-05-23T14:28:24.672Z,29.93
2019-05-23T14:31:28.465Z,29.57
2019-05-23T14:34:03.598Z,29.67
2019-05-23T14:36:50.940Z,29.70
2019-05-23T14:39:32.453Z,29.22
2019-05-23T14:42:10.728Z,29.05
2019-05-23T14:44:40.184Z,29.33
2019-05-23T14:47:27.877Z,28.95
2019-05-23T14:50:19.143Z,29.28
2019-05-23T14:52:50.608Z,29.19
2019-05-23T14:55:20.193Z,29.19
2019-05-23T14:57:49.697Z,29.59
2019-05-23T15:00:19.768Z,29.06
2019-05-23T15:02:49.261Z,29.10
2019-05-23T15:05:18.827Z,28.94
2019-05-23T15:07:48.875Z,28.64
2019-05-23T15:10:20.032Z,28.98
2019-05-23T15:12:49.506Z,28.65
2019-05-23T15:15:19.129Z,28.55
2019-05-23T15:17:48.681Z,28.86
2019-05-23T15:20:19.728Z,28.65
2019-05-23T15:22:49.186Z,28.70
2019-05-23T15:25:18.814Z,28.47
2019-05-23T15:27:48.277Z,28.64
2019-05-23T15:30:18.583Z,29.48
2019-05-23T15:32:48.058Z,28.81
2019-05-23T15:35:17.931Z,28.59
2019-05-23T15:37:47.725Z,28.69
2019-05-23T15:40:17.279Z,28.91
2019-05-23T15:42:47.076Z,29.05
2019-05-23T15:45:16.937Z,29.25
2019-05-23T15:47:46.497Z,29.65
2019-05-23T15:50:17.687Z,29.42
2019-05-23T15:52:55.320Z,29.46
2019-05-23T15:55:42.909Z,29.89
2019-05-23T15:58:23.451Z,29.53
2019-05-23T16:01:04.107Z,29.67
2019-05-23T16:03:39.007Z,29.67
2019-05-23T16:06:11.164Z,29.90
2019-05-23T16:08:42.902Z,30.17
2019-05-23T16:11:17.133Z,29.66
2019-05-23T16:13:44.406Z,29.66
2019-05-23T16:16:13.959Z,29.82
2019-05-23T16:18:44.294Z,29.66
2019-05-23T16:21:14.607Z,30.08
2019-05-23T16:23:44.051Z,30.06
2019-05-23T16:26:13.760Z,30.07
2019-05-23T16:28:43.201Z,30.20
2019-05-23T16:31:12.613Z,30.26
2019-05-23T16:33:42.110Z,30.04
2019-05-23T16:36:11.578Z,30.27
2019-05-23T16:38:41.118Z,30.27
2019-05-23T16:41:11.525Z,30.17
2019-05-23T16:43:41.391Z,30.51
2019-05-23T16:46:11.664Z,30.86
2019-05-23T16:48:41.442Z,30.97
2019-05-23T16:51:10.912Z,30.69
2019-05-23T16:53:40.930Z,30.74
2019-05-23T16:56:18.885Z,31.16
2019-05-23T16:59:03.204Z,31.10
2019-05-23T17:01:57.040Z,30.49
2019-05-23T17:04:37.857Z,30.44
2019-05-23T17:07:19.293Z,30.14
2019-05-23T17:10:08.639Z,30.55
2019-05-23T17:12:49.891Z,31.22
2019-05-23T17:15:56.660Z,31.29
2019-05-23T17:19:03.747Z,31.19
2019-05-23T17:21:55.369Z,31.53
2019-05-23T17:24:49.787Z,31.20
2019-05-23T17:27:28.520Z,31.72
2019-05-23T17:30:17.432Z,31.31
2019-05-23T17:32:47.153Z,31.61
2019-05-23T17:35:16.745Z,31.53
2019-05-23T17:37:46.639Z,31.60
2019-05-23T17:40:25.086Z,31.65
2019-05-23T17:42:47.687Z,31.63
2019-05-23T17:45:18.382Z,31.72
2019-05-23T17:47:48.540Z,31.79
2019-05-23T17:50:18.224Z,31.50
2019-05-23T17:52:47.905Z,31.73
2019-05-23T17:55:17.337Z,31.88
2019-05-23T17:57:47.112Z,32.08
2019-05-23T18:00:21.345Z,31.81
2019-05-23T18:02:51.270Z,31.77
2019-05-23T18:05:21.417Z,31.86
2019-05-23T18:07:51.003Z,32.10
2019-05-23T18:10:20.653Z,32.08
2019-05-23T18:12:50.294Z,32.44
2019-05-23T18:15:19.955Z,32.77
2019-05-23T18:17:49.652Z,32.56
2019-05-23T18:20:19.158Z,32.88
2019-05-23T18:22:48.747Z,33.14
2019-05-23T18:25:18.466Z,32.89
2019-05-23T18:27:48.108Z,33.45
2019-05-23T18:30:29.023Z,33.40
2019-05-23T18:32:58.461Z,33.66
2019-05-23T18:35:28.788Z,33.81
2019-05-23T18:37:58.477Z,33.76
2019-05-23T18:40:29.159Z,33.82
2019-05-23T18:42:58.636Z,33.66
2019-05-23T18:45:29.880Z,33.91
2019-05-23T18:47:59.508Z,33.91
2019-05-23T18:50:31.008Z,34.03
2019-05-23T18:53:01.296Z,34.19
2019-05-23T18:55:31.159Z,34.20
2019-05-23T18:58:00.786Z,34.43
2019-05-23T19:01:09.741Z,34.64
2019-05-23T19:03:39.807Z,35.47
2019-05-23T19:06:09.304Z,36.03
2019-05-23T19:08:39.145Z,36.85
2019-05-23T19:11:20.063Z,37.04
2019-05-23T19:13:40.202Z,37.73
2019-05-23T19:16:09.656Z,37.95
2019-05-23T19:18:39.266Z,38.39
2019-05-23T19:21:10.267Z,38.47
2019-05-23T19:23:40.955Z,38.80
2019-05-23T19:26:10.906Z,39.64
2019-05-23T19:28:40.639Z,39.82
2019-05-23T19:31:10.627Z,39.65
2019-05-23T19:33:40.653Z,40.01
2019-05-23T19:36:11.997Z,40.30
2019-05-23T19:38:41.641Z,40.75
2019-05-23T19:41:12.581Z,41.11
2019-05-23T19:43:42.463Z,41.47
2019-05-23T19:46:12.401Z,41.86
2019-05-23T19:48:42.796Z,41.79
2019-05-23T19:51:12.372Z,42.01
2019-05-23T19:53:42.391Z,42.53
2019-05-23T19:56:11.930Z,42.35
2019-05-23T19:58:42.318Z,42.81
2019-05-23T20:01:12.359Z,42.95
2019-05-23T20:03:41.872Z,42.12
2019-05-23T20:06:11.573Z,42.65
2019-05-23T20:08:41.495Z,42.94
2019-05-23T20:11:11.338Z,43.01
2019-05-23T20:13:40.866Z,43.94
2019-05-23T20:16:11.022Z,44.02
2019-05-23T20:18:40.752Z,44.35
2019-05-23T20:21:10.490Z,44.07
2019-05-23T20:23:39.998Z,44.09
2019-05-23T20:26:09.521Z,44.40
2019-05-23T20:28:40.316Z,44.57
2019-05-23T20:31:10.329Z,44.79
2019-05-23T20:33:39.999Z,45.11
2019-05-23T20:36:12.735Z,45.22
2019-05-23T20:38:42.648Z,45.42
2019-05-23T20:41:12.528Z,45.25
2019-05-23T20:43:42.015Z,45.84
2019-05-23T20:46:11.904Z,46.06
2019-05-23T20:48:41.451Z,46.43
2019-05-23T20:51:13.500Z,46.24
2019-05-23T20:53:43.920Z,46.60
2019-05-23T20:56:13.770Z,46.63
2019-05-23T20:58:43.196Z,46.59
2019-05-23T21:01:21.132Z,46.27
2019-05-23T21:03:51.934Z,46.75
2019-05-23T21:06:21.338Z,46.68
2019-05-23T21:08:50.844Z,47.32
2019-05-23T21:11:20.515Z,47.25
2019-05-23T21:13:49.987Z,47.35
2019-05-23T21:16:19.630Z,47.86
2019-05-23T21:18:50.298Z,47.79
2019-05-23T21:21:20.038Z,48.23
2019-05-23T21:23:49.845Z,48.23
2019-05-23T21:26:19.395Z,48.25
2019-05-23T21:28:49.034Z,48.54
2019-05-23T21:31:22.153Z,48.66
2019-05-23T21:33:51.592Z,48.89
2019-05-23T21:36:21.111Z,48.74
2019-05-23T21:38:51.279Z,48.80
2019-05-23T21:41:20.883Z,49.07
2019-05-23T21:43:52.449Z,49.17
2019-05-23T21:46:22.053Z,48.63
2019-05-23T21:48:51.585Z,49.32
2019-05-23T21:51:21.038Z,49.30
2019-05-23T21:53:50.534Z,49.67
2019-05-23T21:56:19.991Z,49.55
2019-05-23T21:58:50.184Z,49.34
2019-05-23T22:01:41.255Z,49.84
2019-05-23T22:04:29.673Z,50.25
2019-05-23T22:07:04.340Z,50.18
2019-05-23T22:09:34.670Z,50.13
2019-05-23T22:12:06.931Z,50.60
2019-05-23T22:14:36.643Z,50.84
2019-05-23T22:17:06.017Z,51.36
2019-05-23T22:19:35.419Z,51.54
2019-05-23T22:22:05.301Z,52.05
2019-05-23T22:24:34.745Z,52.15
2019-05-23T22:27:06.634Z,51.76
2019-05-23T22:29:36.210Z,51.61
2019-05-23T22:32:07.276Z,51.49
2019-05-23T22:34:44.886Z,52.07
2019-05-23T22:37:16.919Z,52.41
2019-05-23T22:39:46.321Z,52.74
2019-05-23T22:42:15.817Z,52.45
2019-05-23T22:44:45.402Z,52.39
2019-05-23T22:47:14.784Z,52.81
2019-05-23T22:49:44.367Z,52.72
2019-05-23T22:52:13.822Z,51.91
2019-05-23T22:54:43.227Z,51.92
2019-05-23T22:57:12.672Z,53.19
2019-05-23T22:59:42.327Z,53.85
2019-05-23T23:02:15.190Z,54.14
2019-05-23T23:04:44.774Z,54.11
2019-05-23T23:07:15.715Z,54.54
2019-05-23T23:09:45.548Z,55.13
2019-05-23T23:12:15.230Z,55.60
2019-05-23T23:14:44.926Z,55.87
2019-05-23T23:17:15.020Z,55.97
2019-05-23T23:19:44.548Z,56.36
2019-05-23T23:22:14.984Z,56.58
2019-05-23T23:24:44.460Z,56.58
2019-05-23T23:27:13.947Z,56.95
2019-05-23T23:29:43.686Z,57.08
2019-05-23T23:32:13.199Z,57.36
2019-05-23T23:34:42.728Z,57.53
2019-05-23T23:37:12.534Z,57.86
2019-05-23T23:39:42.041Z,58.06
2019-05-23T23:42:11.632Z,58.02
2019-05-23T23:44:40.249Z,58.20
2019-05-23T23:47:27.489Z,58.63
2019-05-23T23:50:14.933Z,58.93
2019-05-23T23:53:02.198Z,59.04
2019-05-23T23:55:49.496Z,59.00
2019-05-23T23:58:17.924Z,59.35
